createdAt,value
2022-08-26T00:00:39.828Z,6.1
2022-08-26T00:01:39.855Z,6.8
2022-08-26T00:02:39.478Z,5.4
2022-08-26T00:03:39.487Z,5.9
2022-08-26T00:04:39.365Z,6.0
2022-08-26T00:05:38.910Z,6.9
2022-08-26T00:06:42.714Z,6.4
2022-08-26T00:07:39.411Z,6.2
2022-08-26T00:08:39.851Z,6.3
2022-08-26T00:09:40.363Z,6.7
2022-08-26T00:10:39.696Z,6.6
2022-08-26T00:11:39.592Z,5.6
2022-08-26T00:12:39.502Z,6.4
2022-08-26T00:13:39.460Z,6.9
2022-08-26T00:14:39.597Z,5.8
2022-08-26T00:15:39.877Z,6.6
2022-08-26T00:16:40.930Z,6.6
2022-08-26T00:17:40.392Z,5.5
2022-08-26T00:18:40.834Z,5.5
2022-08-26T00:19:39.558Z,5.4
2022-08-26T00:20:39.411Z,6.0
2022-08-26T00:21:39.162Z,6.3
2022-08-26T00:22:39.126Z,5.9
2022-08-26T00:23:39.747Z,6.0
2022-08-26T00:24:39.585Z,6.1
2022-08-26T00:25:42.590Z,5.9
2022-08-26T00:26:39.359Z,6.2
2022-08-26T00:27:39.203Z,5.7
2022-08-26T00:28:38.902Z,5.6
2022-08-26T00:29:39.120Z,6.3
2022-08-26T00:30:41.279Z,5.0
2022-08-26T00:31:39.906Z,5.2
2022-08-26T00:32:39.494Z,5.1
2022-08-26T00:33:39.343Z,4.7
2022-08-26T00:34:39.135Z,5.9
2022-08-26T00:35:39.080Z,5.8
2022-08-26T00:36:40.663Z,5.9
2022-08-26T00:37:40.440Z,6.2
2022-08-26T00:38:39.370Z,6.3
2022-08-26T00:39:39.202Z,5.9
2022-08-26T00:40:43.009Z,5.5
2022-08-26T00:41:39.306Z,4.8
2022-08-26T00:42:39.555Z,4.9
2022-08-26T00:43:47.637Z,5.6
2022-08-26T00:44:39.240Z,4.9
2022-08-26T00:45:43.131Z,6.3
2022-08-26T00:46:46.653Z,5.0
2022-08-26T00:47:42.940Z,5.6
2022-08-26T00:48:41.434Z,5.1
2022-08-26T00:49:43.573Z,5.4
2022-08-26T00:50:41.564Z,4.8
2022-08-26T00:51:43.827Z,5.5
2022-08-26T00:52:40.219Z,5.8
2022-08-26T00:53:42.527Z,5.8
2022-08-26T00:54:42.352Z,5.2
2022-08-26T00:55:40.053Z,5.6
2022-08-26T00:57:00.038Z,4.8
2022-08-26T00:57:39.256Z,4.6
2022-08-26T00:58:39.022Z,5.0
2022-08-26T00:59:39.898Z,5.1
2022-08-26T01:00:39.605Z,5.2
2022-08-26T01:01:40.695Z,5.8
2022-08-26T01:02:40.013Z,5.5
2022-08-26T01:03:40.977Z,5.8
2022-08-26T01:04:39.917Z,5.3
2022-08-26T01:05:40.328Z,4.4
2022-08-26T01:06:39.731Z,5.9
2022-08-26T01:07:39.151Z,5.6
2022-08-26T01:08:39.317Z,5.8
2022-08-26T01:09:39.646Z,4.7
2022-08-26T01:10:39.678Z,5.5
2022-08-26T01:11:39.459Z,5.7
2022-08-26T01:12:40.825Z,5.3
2022-08-26T01:13:39.049Z,6.2
2022-08-26T01:14:39.782Z,5.2
2022-08-26T01:15:41.999Z,5.4
2022-08-26T01:16:39.566Z,4.6
2022-08-26T01:17:39.605Z,5.1
2022-08-26T01:18:39.744Z,5.4
2022-08-26T01:19:44.521Z,4.9
2022-08-26T01:20:50.011Z,4.5
2022-08-26T01:21:48.659Z,4.8
2022-08-26T01:22:50.187Z,4.6
2022-08-26T01:23:45.028Z,5.4
2022-08-26T01:24:40.259Z,4.2
2022-08-26T01:25:40.872Z,4.7
2022-08-26T01:26:40.931Z,3.7
2022-08-26T01:27:39.609Z,5.5
2022-08-26T01:28:39.767Z,5.3
2022-08-26T01:29:41.229Z,4.3
2022-08-26T01:30:39.294Z,4.4
2022-08-26T01:31:42.999Z,4.8
2022-08-26T01:32:39.636Z,4.3
2022-08-26T01:33:42.868Z,6.6
2022-08-26T01:34:39.367Z,5.3
2022-08-26T01:35:39.078Z,4.3
2022-08-26T01:36:40.189Z,4.3
2022-08-26T01:37:40.322Z,4.4
2022-08-26T01:38:40.053Z,5.4
2022-08-26T01:39:39.984Z,4.6
2022-08-26T01:40:40.538Z,5.5
2022-08-26T01:41:39.720Z,5.5
2022-08-26T01:42:40.081Z,5.7
2022-08-26T01:43:39.787Z,4.5
2022-08-26T01:44:44.468Z,5.2
2022-08-26T01:45:39.918Z,5.5
2022-08-26T01:46:39.700Z,5.3
2022-08-26T01:47:40.726Z,4.7
2022-08-26T01:48:40.454Z,5.1
2022-08-26T01:49:40.635Z,4.8
2022-08-26T01:50:39.921Z,4.3
2022-08-26T01:51:39.885Z,4.9
2022-08-26T01:52:41.225Z,5.2
2022-08-26T01:53:41.790Z,4.3
2022-08-26T01:54:39.617Z,4.9
2022-08-26T01:55:40.442Z,5.1
2022-08-26T01:56:39.668Z,4.4
2022-08-26T01:57:39.199Z,5.0
2022-08-26T01:58:44.405Z,5.4
2022-08-26T01:59:39.662Z,5.7
2022-08-26T02:00:39.635Z,4.4
2022-08-26T02:01:39.337Z,4.6
2022-08-26T02:02:40.678Z,5.1
2022-08-26T02:03:50.217Z,5.0
2022-08-26T02:04:44.504Z,4.6
2022-08-26T02:05:39.404Z,4.5
2022-08-26T02:06:39.279Z,5.0
2022-08-26T02:07:39.347Z,4.5
2022-08-26T02:08:44.536Z,4.0
2022-08-26T02:09:41.337Z,5.1
2022-08-26T02:10:39.890Z,4.5
2022-08-26T02:11:39.289Z,4.6
2022-08-26T02:12:39.153Z,4.1
2022-08-26T02:13:43.793Z,4.4
2022-08-26T02:14:43.785Z,5.0
2022-08-26T02:15:41.464Z,4.8
2022-08-26T02:16:42.330Z,5.1
2022-08-26T02:17:43.231Z,4.1
2022-08-26T02:18:39.999Z,4.1
2022-08-26T02:19:40.938Z,5.5
2022-08-26T02:20:39.064Z,4.3
2022-08-26T02:21:39.823Z,5.4
2022-08-26T02:22:39.602Z,4.6
2022-08-26T02:23:39.407Z,4.6
2022-08-26T02:24:49.181Z,4.3
2022-08-26T02:25:46.685Z,4.9
2022-08-26T02:26:40.679Z,4.5
2022-08-26T02:27:39.503Z,4.9
2022-08-26T02:28:50.176Z,4.3
2022-08-26T02:29:41.409Z,4.9
2022-08-26T02:30:39.456Z,4.7
2022-08-26T02:31:39.781Z,3.7
2022-08-26T02:32:40.157Z,4.6
2022-08-26T02:33:43.085Z,4.3
2022-08-26T02:34:39.259Z,4.7
2022-08-26T02:35:39.274Z,4.6
2022-08-26T02:36:39.776Z,4.9
2022-08-26T02:37:41.966Z,4.3
2022-08-26T02:38:39.360Z,3.9
2022-08-26T02:39:40.293Z,3.7
2022-08-26T02:40:40.410Z,4.1
2022-08-26T02:41:44.858Z,4.9
2022-08-26T02:42:39.513Z,3.9
2022-08-26T02:43:39.318Z,4.3
2022-08-26T02:44:39.171Z,4.6
2022-08-26T02:45:39.676Z,4.8
2022-08-26T02:46:40.362Z,3.7
2022-08-26T02:47:39.493Z,4.1
2022-08-26T02:48:39.306Z,4.1
2022-08-26T02:49:41.178Z,4.0
2022-08-26T02:50:39.371Z,4.7
2022-08-26T02:51:39.616Z,4.5
2022-08-26T02:52:39.509Z,4.1
2022-08-26T02:53:39.266Z,4.6
2022-08-26T02:54:39.094Z,4.5
2022-08-26T02:55:39.182Z,4.0
2022-08-26T02:56:39.649Z,4.3
2022-08-26T02:57:39.475Z,3.9
2022-08-26T02:58:39.313Z,4.3
2022-08-26T02:59:39.139Z,4.5
2022-08-26T03:00:39.102Z,4.4
2022-08-26T03:01:40.026Z,3.7
2022-08-26T03:02:39.419Z,4.1
2022-08-26T03:03:39.223Z,4.1
2022-08-26T03:04:39.578Z,4.3
2022-08-26T03:05:39.765Z,4.0
2022-08-26T03:06:40.705Z,4.2
2022-08-26T03:07:39.407Z,4.3
2022-08-26T03:08:39.279Z,4.4
2022-08-26T03:09:39.117Z,4.7
2022-08-26T03:10:38.889Z,3.1
2022-08-26T03:11:39.640Z,3.6
2022-08-26T03:12:39.383Z,4.6
2022-08-26T03:13:39.763Z,3.8
2022-08-26T03:14:39.048Z,4.2
2022-08-26T03:15:39.429Z,3.8
2022-08-26T03:16:39.602Z,4.1
2022-08-26T03:17:39.703Z,4.0
2022-08-26T03:18:39.535Z,4.7
2022-08-26T03:19:39.074Z,4.5
2022-08-26T03:20:38.884Z,4.1
2022-08-26T03:21:39.522Z,4.1
2022-08-26T03:22:39.435Z,4.0
2022-08-26T03:23:39.407Z,4.0
2022-08-26T03:24:39.006Z,4.5
2022-08-26T03:25:39.729Z,4.4
2022-08-26T03:26:39.592Z,4.3
2022-08-26T03:27:39.379Z,3.8
2022-08-26T03:28:39.354Z,4.3
2022-08-26T03:29:39.058Z,4.0
2022-08-26T03:30:39.643Z,3.6
2022-08-26T03:31:39.562Z,4.0
2022-08-26T03:32:39.258Z,3.5
2022-08-26T03:33:39.113Z,3.7
2022-08-26T03:34:38.923Z,3.8
2022-08-26T03:35:40.792Z,4.0
2022-08-26T03:36:39.516Z,4.0
2022-08-26T03:37:39.318Z,4.4
2022-08-26T03:38:39.118Z,4.3
2022-08-26T03:39:38.954Z,4.0
2022-08-26T03:40:39.948Z,4.5
2022-08-26T03:41:39.954Z,3.7
2022-08-26T03:42:39.766Z,3.6
2022-08-26T03:43:39.692Z,4.2
2022-08-26T03:44:42.001Z,3.6
2022-08-26T03:45:39.568Z,4.2
2022-08-26T03:46:39.664Z,3.8
2022-08-26T03:47:39.271Z,3.4
2022-08-26T03:48:39.448Z,4.2
2022-08-26T03:49:39.730Z,3.7
2022-08-26T03:50:39.501Z,3.7
2022-08-26T03:51:39.670Z,4.3
2022-08-26T03:52:43.656Z,3.7
2022-08-26T03:53:39.044Z,3.6
2022-08-26T03:54:40.053Z,4.3
2022-08-26T03:55:39.875Z,4.1
2022-08-26T03:56:40.154Z,4.0
2022-08-26T03:57:39.191Z,3.6
2022-08-26T03:58:38.993Z,3.9
2022-08-26T03:59:41.326Z,3.8
2022-08-26T04:00:39.628Z,3.8
2022-08-26T04:01:39.352Z,4.0
2022-08-26T04:02:39.534Z,3.7
2022-08-26T04:03:38.977Z,3.4
2022-08-26T04:04:39.848Z,3.8
2022-08-26T04:05:39.508Z,4.0
2022-08-26T04:06:40.515Z,3.2
2022-08-26T04:07:39.492Z,4.0
2022-08-26T04:08:38.979Z,4.0
2022-08-26T04:09:39.626Z,3.8
2022-08-26T04:10:39.445Z,3.6
2022-08-26T04:11:39.912Z,4.2
2022-08-26T04:12:39.338Z,4.2
2022-08-26T04:13:39.771Z,3.6
2022-08-26T04:14:39.585Z,3.0
2022-08-26T04:15:39.448Z,3.7
2022-08-26T04:16:40.000Z,3.7
2022-08-26T04:17:39.051Z,4.2
2022-08-26T04:18:40.552Z,3.8
2022-08-26T04:19:39.581Z,3.5
2022-08-26T04:20:39.318Z,4.0
2022-08-26T04:21:39.578Z,3.7
2022-08-26T04:22:40.150Z,3.5
2022-08-26T04:23:47.282Z,3.7
2022-08-26T04:24:39.532Z,3.5
2022-08-26T04:25:39.567Z,3.2
2022-08-26T04:26:42.892Z,3.8
2022-08-26T04:27:38.998Z,3.9
2022-08-26T04:28:39.639Z,4.1
2022-08-26T04:29:39.536Z,3.8
2022-08-26T04:30:39.353Z,4.2
2022-08-26T04:31:39.270Z,3.2
2022-08-26T04:32:38.963Z,3.2
2022-08-26T04:33:41.662Z,3.4
2022-08-26T04:34:39.516Z,2.9
2022-08-26T04:35:39.277Z,3.1
2022-08-26T04:36:39.157Z,3.5
2022-08-26T04:37:39.016Z,3.6
2022-08-26T04:38:39.588Z,4.0
2022-08-26T04:39:39.390Z,3.2
2022-08-26T04:40:42.645Z,3.4
2022-08-26T04:41:39.033Z,3.1
2022-08-26T04:42:39.806Z,3.3
2022-08-26T04:43:39.635Z,3.3
2022-08-26T04:44:39.421Z,3.6
2022-08-26T04:45:39.585Z,3.7
2022-08-26T04:46:39.760Z,2.5
2022-08-26T04:47:39.784Z,2.9
2022-08-26T04:48:39.590Z,3.1
2022-08-26T04:49:39.299Z,3.4
2022-08-26T04:50:39.181Z,3.8
2022-08-26T04:51:39.355Z,3.6
2022-08-26T04:52:39.819Z,2.5
2022-08-26T04:53:39.551Z,3.2
2022-08-26T04:54:39.313Z,3.5
2022-08-26T04:55:39.820Z,3.5
2022-08-26T04:56:40.022Z,3.4
2022-08-26T04:57:39.650Z,3.6
2022-08-26T04:58:39.509Z,3.4
2022-08-26T04:59:39.608Z,2.9
2022-08-26T05:00:39.142Z,2.7
2022-08-26T05:01:41.369Z,3.9
2022-08-26T05:02:39.655Z,3.2
2022-08-26T05:03:39.588Z,3.9
2022-08-26T05:04:39.289Z,3.3
2022-08-26T05:05:40.049Z,2.6
2022-08-26T05:06:38.947Z,2.4
2022-08-26T05:07:39.606Z,2.9
2022-08-26T05:08:39.341Z,2.1
2022-08-26T05:09:39.602Z,3.5
2022-08-26T05:10:43.659Z,4.0
2022-08-26T05:11:39.731Z,3.0
2022-08-26T05:12:39.544Z,2.6
2022-08-26T05:13:39.363Z,2.2
2022-08-26T05:14:39.224Z,3.0
2022-08-26T05:15:39.101Z,3.0
2022-08-26T05:16:40.495Z,3.5
2022-08-26T05:17:39.468Z,3.8
2022-08-26T05:18:40.031Z,3.8
2022-08-26T05:19:42.995Z,3.2
2022-08-26T05:20:40.425Z,3.9
2022-08-26T05:21:41.406Z,3.2
2022-08-26T05:22:39.463Z,3.1
2022-08-26T05:23:39.271Z,3.1
2022-08-26T05:24:39.494Z,3.0
2022-08-26T05:25:39.840Z,3.5
2022-08-26T05:26:39.537Z,3.2
2022-08-26T05:27:39.369Z,2.6
2022-08-26T05:28:39.181Z,3.0
2022-08-26T05:29:39.636Z,3.4
2022-08-26T05:30:40.335Z,3.6
2022-08-26T05:31:39.525Z,3.0
2022-08-26T05:32:39.364Z,2.6
2022-08-26T05:33:41.341Z,2.9
2022-08-26T05:34:38.982Z,3.7
2022-08-26T05:35:40.617Z,3.8
2022-08-26T05:36:39.541Z,3.8
2022-08-26T05:37:39.272Z,2.6
2022-08-26T05:38:39.077Z,3.1
2022-08-26T05:39:38.920Z,2.8
2022-08-26T05:40:41.017Z,3.1
2022-08-26T05:41:40.842Z,2.9
2022-08-26T05:42:39.302Z,2.4
2022-08-26T05:43:39.110Z,2.8
2022-08-26T05:44:53.729Z,3.2
2022-08-26T05:45:44.946Z,3.3
2022-08-26T05:46:39.841Z,3.3
2022-08-26T05:47:39.171Z,2.8
2022-08-26T05:48:39.451Z,3.4
2022-08-26T05:49:39.721Z,3.3
2022-08-26T05:50:40.976Z,2.6
2022-08-26T05:51:43.375Z,2.9
2022-08-26T05:52:39.165Z,2.3
2022-08-26T05:53:40.300Z,2.2
2022-08-26T05:54:39.660Z,2.4
2022-08-26T05:55:43.533Z,2.8
2022-08-26T05:56:39.297Z,3.2
2022-08-26T05:57:42.262Z,2.9
2022-08-26T05:58:40.072Z,3.0
2022-08-26T05:59:39.689Z,3.6
2022-08-26T06:00:39.611Z,3.4
2022-08-26T06:01:41.129Z,2.5
2022-08-26T06:02:39.181Z,2.3
2022-08-26T06:03:40.001Z,2.5
2022-08-26T06:04:39.552Z,2.4
2022-08-26T06:05:39.941Z,2.2
2022-08-26T06:06:39.207Z,2.5
2022-08-26T06:07:39.080Z,2.6
2022-08-26T06:08:39.750Z,2.7
2022-08-26T06:09:39.528Z,1.9
2022-08-26T06:10:46.162Z,2.3
2022-08-26T06:11:39.161Z,2.6
2022-08-26T06:12:39.099Z,3.1
2022-08-26T06:13:39.737Z,2.8
2022-08-26T06:14:39.457Z,2.5
2022-08-26T06:15:43.061Z,2.5
2022-08-26T06:16:40.814Z,2.7
2022-08-26T06:17:38.903Z,2.9
2022-08-26T06:18:41.518Z,3.4
2022-08-26T06:19:39.435Z,2.4
2022-08-26T06:20:40.260Z,2.0
2022-08-26T06:21:40.303Z,2.6
2022-08-26T06:22:39.320Z,2.7
2022-08-26T06:23:39.220Z,2.9
2022-08-26T06:24:38.926Z,2.7
2022-08-26T06:25:39.701Z,2.3
2022-08-26T06:26:40.061Z,2.9
2022-08-26T06:27:39.219Z,2.5
2022-08-26T06:28:39.048Z,2.8
2022-08-26T06:29:39.766Z,2.1
2022-08-26T06:30:39.899Z,2.4
2022-08-26T06:31:40.009Z,2.9
2022-08-26T06:32:39.295Z,3.1
2022-08-26T06:33:39.058Z,2.6
2022-08-26T06:34:39.676Z,2.7
2022-08-26T06:35:40.467Z,3.0
2022-08-26T06:36:40.780Z,2.6
2022-08-26T06:37:39.082Z,2.1
2022-08-26T06:38:38.912Z,2.7
2022-08-26T06:39:41.084Z,2.8
2022-08-26T06:40:40.950Z,2.6
2022-08-26T06:41:42.786Z,2.9
2022-08-26T06:42:39.052Z,2.7
2022-08-26T06:43:38.893Z,3.0
2022-08-26T06:44:40.999Z,2.9
2022-08-26T06:45:39.451Z,2.7
2022-08-26T06:46:39.418Z,2.3
2022-08-26T06:47:38.961Z,2.5
2022-08-26T06:48:39.754Z,2.6
2022-08-26T06:49:39.768Z,2.9
2022-08-26T06:50:39.927Z,3.0
2022-08-26T06:51:39.729Z,3.3
2022-08-26T06:52:40.917Z,2.6
2022-08-26T06:53:41.076Z,2.3
2022-08-26T06:54:39.495Z,3.3
2022-08-26T06:55:43.348Z,2.9
2022-08-26T06:56:40.457Z,2.7
2022-08-26T06:57:41.128Z,3.3
2022-08-26T06:58:40.586Z,2.9
2022-08-26T06:59:39.474Z,2.2
2022-08-26T07:00:39.546Z,2.4
2022-08-26T07:01:42.973Z,2.5
2022-08-26T07:02:39.933Z,3.0
2022-08-26T07:03:39.943Z,2.9
2022-08-26T07:04:39.530Z,3.8
2022-08-26T07:05:39.213Z,3.7
2022-08-26T07:06:40.091Z,2.7
2022-08-26T07:07:39.860Z,3.4
2022-08-26T07:08:39.742Z,3.4
2022-08-26T07:09:39.437Z,3.4
2022-08-26T07:10:39.232Z,5.0
2022-08-26T07:11:39.054Z,5.9
2022-08-26T07:12:39.747Z,6.1
2022-08-26T07:13:39.561Z,5.9
2022-08-26T07:14:38.991Z,5.0
2022-08-26T07:15:40.563Z,3.7
2022-08-26T07:16:39.877Z,4.5
2022-08-26T07:17:39.197Z,3.4
2022-08-26T07:18:40.334Z,3.7
2022-08-26T07:19:39.813Z,3.4
2022-08-26T07:20:39.889Z,4.2
2022-08-26T07:21:39.123Z,4.6
2022-08-26T07:22:39.675Z,3.9
2022-08-26T07:23:39.687Z,3.9
2022-08-26T07:24:39.369Z,3.8
2022-08-26T07:25:40.586Z,4.3
2022-08-26T07:26:43.079Z,4.8
2022-08-26T07:27:39.210Z,4.5
2022-08-26T07:28:38.994Z,4.5
2022-08-26T07:29:40.081Z,4.8
2022-08-26T07:30:39.910Z,4.9
2022-08-26T07:31:42.826Z,4.1
2022-08-26T07:32:39.223Z,3.7
2022-08-26T07:33:39.530Z,4.1
2022-08-26T07:34:40.126Z,4.2
2022-08-26T07:35:39.522Z,5.0
2022-08-26T07:36:39.350Z,3.8
2022-08-26T07:37:39.400Z,4.0
2022-08-26T07:38:39.154Z,4.2
2022-08-26T07:39:40.340Z,4.6
2022-08-26T07:40:39.622Z,4.3
2022-08-26T07:41:39.318Z,4.3
2022-08-26T07:42:39.092Z,4.8
2022-08-26T07:43:39.992Z,4.4
2022-08-26T07:44:39.789Z,5.7
2022-08-26T07:45:38.981Z,3.9
2022-08-26T07:46:39.765Z,4.6
2022-08-26T07:47:39.507Z,5.0
2022-08-26T07:48:39.372Z,5.3
2022-08-26T07:49:39.237Z,5.2
2022-08-26T07:50:50.105Z,4.5
2022-08-26T07:51:39.238Z,5.8
2022-08-26T07:52:39.043Z,5.2
2022-08-26T07:53:39.818Z,4.6
2022-08-26T07:54:39.523Z,5.0
2022-08-26T07:55:39.460Z,5.6
2022-08-26T07:56:39.222Z,5.6
2022-08-26T07:57:39.964Z,5.3
2022-08-26T07:58:39.756Z,5.3
2022-08-26T07:59:39.595Z,5.5
2022-08-26T08:00:39.517Z,6.1
2022-08-26T08:01:39.484Z,6.1
2022-08-26T08:02:39.153Z,5.6
2022-08-26T08:03:39.651Z,7.3
2022-08-26T08:04:39.159Z,5.6
2022-08-26T08:05:41.247Z,6.1
2022-08-26T08:06:40.125Z,5.7
2022-08-26T08:07:44.804Z,5.8
2022-08-26T08:08:39.259Z,7.3
2022-08-26T08:09:40.706Z,6.4
2022-08-26T08:10:39.827Z,6.1
2022-08-26T08:11:39.944Z,5.5
2022-08-26T08:12:40.688Z,5.6
2022-08-26T08:13:39.360Z,6.1
2022-08-26T08:14:39.214Z,6.2
2022-08-26T08:15:39.354Z,6.3
2022-08-26T08:16:42.402Z,6.0
2022-08-26T08:17:39.924Z,6.4
2022-08-26T08:18:39.695Z,6.7
2022-08-26T08:19:39.881Z,5.6
2022-08-26T08:20:40.577Z,5.6
2022-08-26T08:21:39.504Z,6.3
2022-08-26T08:22:39.561Z,6.6
2022-08-26T08:23:39.498Z,6.4
2022-08-26T08:24:39.341Z,5.9
2022-08-26T08:25:39.210Z,6.6
2022-08-26T08:26:39.425Z,6.7
2022-08-26T08:27:39.993Z,6.3
2022-08-26T08:28:39.116Z,6.2
2022-08-26T08:29:39.703Z,7.0
2022-08-26T08:30:39.871Z,7.5
2022-08-26T08:31:56.948Z,8.3
2022-08-26T08:32:39.292Z,7.6
2022-08-26T08:33:39.000Z,8.5
2022-08-26T08:35:39.524Z,7.6
2022-08-26T08:36:39.434Z,7.8
2022-08-26T08:37:39.405Z,7.9
2022-08-26T08:38:39.083Z,7.6
2022-08-26T08:39:39.696Z,8.9
2022-08-26T08:40:40.250Z,7.7
2022-08-26T08:41:52.782Z,8.3
2022-08-26T08:43:41.324Z,8.2
2022-08-26T08:44:40.907Z,9.6
2022-08-26T08:45:43.439Z,8.1
2022-08-26T08:46:40.606Z,7.6
2022-08-26T08:47:45.781Z,8.3
2022-08-26T08:48:42.498Z,8.9
2022-08-26T08:49:39.713Z,9.7
2022-08-26T08:50:43.920Z,8.6
2022-08-26T08:51:48.854Z,9.4
2022-08-26T08:52:40.327Z,9.6
2022-08-26T08:53:41.480Z,9.1
2022-08-26T08:54:39.705Z,9.1
2022-08-26T08:55:53.313Z,8.3
2022-08-26T08:56:44.579Z,8.9
2022-08-26T08:57:47.317Z,9.1
2022-08-26T08:58:44.263Z,9.5
2022-08-26T08:59:44.092Z,8.8
2022-08-26T09:00:45.862Z,9.3
2022-08-26T09:01:44.463Z,8.5
2022-08-26T09:02:44.432Z,8.9
2022-08-26T09:03:49.838Z,8.3
2022-08-26T09:04:59.325Z,8.2
2022-08-26T09:05:42.564Z,8.2
2022-08-26T09:06:39.642Z,7.9
2022-08-26T09:07:42.377Z,8.3
2022-08-26T09:08:39.247Z,11.1
2022-08-26T09:09:41.026Z,9.2
2022-08-26T09:10:52.837Z,9.3
2022-08-26T09:11:39.535Z,9.7
2022-08-26T09:12:39.801Z,10.2
2022-08-26T09:13:43.085Z,10.5
2022-08-26T09:14:39.233Z,10.7
2022-08-26T09:16:02.325Z,10.4
2022-08-26T09:16:50.377Z,9.9
2022-08-26T09:17:57.765Z,9.4
2022-08-26T09:18:52.849Z,9.3
2022-08-26T09:19:46.803Z,10.2
2022-08-26T09:20:47.415Z,10.4
2022-08-26T09:21:39.552Z,10.4
2022-08-26T09:22:39.441Z,10.9
2022-08-26T09:23:41.808Z,10.9
2022-08-26T09:24:41.752Z,10.8
2022-08-26T09:26:43.857Z,10.0
2022-08-26T09:27:43.673Z,10.8
2022-08-26T09:28:40.851Z,11.5
2022-08-26T09:29:42.748Z,12.2
2022-08-26T09:30:39.781Z,11.2
2022-08-26T09:31:39.625Z,10.5
2022-08-26T09:32:40.165Z,11.6
2022-08-26T09:33:39.566Z,11.0
2022-08-26T09:34:43.852Z,10.9
2022-08-26T09:35:40.593Z,11.5
2022-08-26T09:36:43.830Z,11.6
2022-08-26T09:37:54.223Z,10.8
2022-08-26T09:38:39.719Z,11.7
2022-08-26T09:39:39.520Z,10.7
2022-08-26T09:40:39.641Z,11.2
2022-08-26T09:41:39.370Z,11.4
2022-08-26T09:42:39.290Z,12.0
2022-08-26T09:43:39.030Z,11.3
2022-08-26T09:44:59.320Z,11.4
2022-08-26T09:45:40.776Z,11.7
2022-08-26T09:46:41.166Z,11.7
2022-08-26T09:47:49.857Z,12.1
2022-08-26T09:48:41.068Z,11.2
2022-08-26T09:49:39.709Z,11.9
2022-08-26T09:50:44.010Z,11.9
2022-08-26T09:51:39.378Z,11.3
2022-08-26T09:52:40.597Z,11.4
2022-08-26T09:53:44.339Z,11.5
2022-08-26T09:54:40.125Z,11.5
2022-08-26T09:55:40.651Z,11.3
2022-08-26T09:56:39.277Z,11.4
2022-08-26T09:57:49.821Z,11.4
2022-08-26T09:58:41.951Z,10.7
2022-08-26T09:59:39.302Z,11.5
2022-08-26T10:00:41.206Z,11.1
2022-08-26T10:01:42.681Z,11.3
2022-08-26T10:02:41.340Z,11.6
2022-08-26T10:03:39.795Z,10.6
2022-08-26T10:04:39.725Z,12.2
2022-08-26T10:05:50.319Z,12.3
2022-08-26T10:06:41.623Z,11.1
2022-08-26T10:07:44.000Z,11.0
2022-08-26T10:08:41.555Z,12.1
2022-08-26T10:09:41.227Z,12.3
2022-08-26T10:10:39.801Z,10.9
2022-08-26T10:11:44.901Z,11.1
2022-08-26T10:12:43.875Z,11.5
2022-08-26T10:13:42.354Z,11.8
2022-08-26T10:14:47.128Z,11.9
2022-08-26T10:15:50.661Z,11.1
2022-08-26T10:16:44.025Z,10.6
2022-08-26T10:17:40.915Z,11.3
2022-08-26T10:18:41.462Z,11.5
2022-08-26T10:19:56.603Z,11.5
2022-08-26T10:20:44.508Z,11.5
2022-08-26T10:21:52.268Z,10.9
2022-08-26T10:22:44.315Z,11.7
2022-08-26T10:23:45.153Z,12.3
2022-08-26T10:24:42.080Z,11.8
2022-08-26T10:25:44.171Z,10.8
2022-08-26T10:26:50.317Z,13.6
2022-08-26T10:27:49.696Z,11.5
2022-08-26T10:28:48.914Z,11.8
2022-08-26T10:29:44.806Z,11.0
2022-08-26T10:30:42.885Z,11.0
2022-08-26T10:31:47.950Z,10.8
2022-08-26T10:32:53.819Z,12.2
2022-08-26T10:33:39.518Z,11.4
2022-08-26T10:34:39.394Z,11.4
2022-08-26T10:35:44.518Z,12.6
2022-08-26T10:37:05.097Z,11.9
2022-08-26T10:37:42.688Z,11.9
2022-08-26T10:38:40.151Z,12.6
2022-08-26T10:39:57.217Z,11.5
2022-08-26T10:40:56.346Z,11.4
2022-08-26T10:41:42.347Z,12.8
2022-08-26T10:42:40.943Z,12.0
2022-08-26T10:43:41.966Z,12.0
2022-08-26T10:44:40.408Z,13.1
2022-08-26T10:45:46.591Z,12.0
2022-08-26T10:46:44.576Z,11.9
2022-08-26T10:47:46.632Z,12.6
2022-08-26T10:49:00.842Z,13.6
2022-08-26T10:49:41.079Z,12.7
2022-08-26T10:50:40.959Z,12.7
2022-08-26T10:51:46.815Z,12.6
2022-08-26T10:52:49.834Z,12.5
2022-08-26T10:53:51.377Z,12.6
2022-08-26T10:54:44.497Z,12.3
2022-08-26T10:55:59.396Z,12.2
2022-08-26T10:56:44.242Z,12.4
2022-08-26T10:58:04.911Z,12.4
2022-08-26T10:58:47.337Z,12.3
2022-08-26T10:59:44.064Z,12.7
2022-08-26T11:00:44.061Z,12.6
2022-08-26T11:01:50.982Z,12.5
2022-08-26T11:02:47.100Z,12.4
2022-08-26T11:03:43.761Z,12.0
2022-08-26T11:04:58.887Z,11.6
2022-08-26T11:05:38.931Z,12.4
2022-08-26T11:06:39.287Z,11.9
2022-08-26T11:07:45.695Z,12.8
2022-08-26T11:08:46.007Z,11.9
2022-08-26T11:09:43.410Z,11.9
2022-08-26T11:10:46.359Z,13.0
2022-08-26T11:11:44.054Z,12.2
2022-08-26T11:12:44.285Z,11.4
2022-08-26T11:13:47.330Z,13.6
2022-08-26T11:14:53.495Z,12.7
2022-08-26T11:15:44.026Z,12.5
2022-08-26T11:16:43.820Z,13.3
2022-08-26T11:17:50.344Z,14.0
2022-08-26T11:18:40.521Z,13.4
2022-08-26T11:20:00.266Z,13.0
2022-08-26T11:20:45.963Z,12.0
2022-08-26T11:21:46.207Z,12.9
2022-08-26T11:22:47.902Z,12.8
2022-08-26T11:23:44.447Z,12.5
2022-08-26T11:24:43.907Z,13.4
2022-08-26T11:26:02.373Z,13.4
2022-08-26T11:26:55.532Z,13.5
2022-08-26T11:27:43.830Z,11.6
2022-08-26T11:28:44.028Z,12.8
2022-08-26T11:29:57.280Z,12.5
2022-08-26T11:30:40.810Z,11.3
2022-08-26T11:31:44.394Z,11.6
2022-08-26T11:32:44.641Z,11.9
2022-08-26T11:33:46.701Z,11.7
2022-08-26T11:34:47.341Z,12.0
2022-08-26T11:35:43.992Z,11.2
2022-08-26T11:36:49.352Z,10.6
2022-08-26T11:37:44.479Z,11.0
2022-08-26T11:38:42.050Z,11.6
2022-08-26T11:39:49.395Z,10.9
2022-08-26T11:40:39.500Z,10.6
2022-08-26T11:41:43.699Z,10.3
2022-08-26T11:42:41.891Z,11.8
2022-08-26T11:43:39.526Z,11.4
2022-08-26T11:44:40.153Z,11.1
2022-08-26T11:45:40.984Z,10.9
2022-08-26T11:46:39.197Z,11.1
2022-08-26T11:47:39.408Z,11.4
2022-08-26T11:48:40.740Z,10.4
2022-08-26T11:49:39.216Z,10.6
2022-08-26T11:50:39.342Z,10.3
2022-08-26T11:51:40.847Z,11.1
2022-08-26T11:52:39.023Z,10.6
2022-08-26T11:53:41.022Z,10.3
2022-08-26T11:54:39.726Z,10.0
2022-08-26T11:55:42.065Z,9.4
2022-08-26T11:56:40.070Z,9.6
2022-08-26T11:57:52.857Z,9.7
2022-08-26T11:58:42.735Z,10.5
2022-08-26T11:59:40.185Z,9.9
2022-08-26T12:00:50.359Z,9.8
2022-08-26T12:01:40.815Z,9.7
2022-08-26T12:02:39.788Z,9.2
2022-08-26T12:03:44.551Z,9.3
2022-08-26T12:04:40.934Z,10.2
2022-08-26T12:05:42.030Z,10.0
2022-08-26T12:06:45.158Z,9.5
2022-08-26T12:07:39.350Z,9.6
2022-08-26T12:08:40.395Z,9.5
2022-08-26T12:09:44.205Z,10.3
2022-08-26T12:10:39.002Z,10.0
2022-08-26T12:11:39.258Z,9.4
2022-08-26T12:12:39.629Z,8.9
2022-08-26T12:13:39.449Z,9.4
2022-08-26T12:14:39.999Z,8.9
2022-08-26T12:15:39.778Z,9.0
2022-08-26T12:16:39.737Z,8.7
2022-08-26T12:17:39.142Z,10.1
2022-08-26T12:18:39.262Z,8.8
2022-08-26T12:19:39.181Z,9.2
2022-08-26T12:20:40.072Z,9.1
2022-08-26T12:21:39.232Z,9.6
2022-08-26T12:22:42.006Z,9.4
2022-08-26T12:23:43.722Z,7.9
2022-08-26T12:24:47.399Z,8.1
2022-08-26T12:25:39.268Z,8.7
2022-08-26T12:26:39.102Z,9.1
2022-08-26T12:27:40.191Z,9.8
2022-08-26T12:28:43.519Z,9.1
2022-08-26T12:29:38.995Z,9.6
2022-08-26T12:30:39.878Z,9.3
2022-08-26T12:31:41.435Z,9.8
2022-08-26T12:32:56.658Z,9.9
2022-08-26T12:33:39.199Z,10.2
2022-08-26T12:34:43.111Z,10.1
2022-08-26T12:35:39.387Z,9.4
2022-08-26T12:36:41.780Z,10.0
2022-08-26T12:37:41.619Z,9.9
2022-08-26T12:38:39.165Z,9.9
2022-08-26T12:39:40.596Z,10.8
2022-08-26T12:40:41.151Z,10.2
2022-08-26T12:41:49.506Z,9.6
2022-08-26T12:42:40.902Z,9.9
2022-08-26T12:43:43.723Z,9.6
2022-08-26T12:44:53.736Z,10.3
2022-08-26T12:45:41.228Z,9.6
2022-08-26T12:46:39.472Z,9.9
2022-08-26T12:47:43.084Z,10.0
2022-08-26T12:48:40.824Z,10.1
2022-08-26T12:49:39.840Z,9.9
2022-08-26T12:50:44.120Z,8.7
2022-08-26T12:51:39.114Z,10.2
2022-08-26T12:52:46.909Z,10.5
2022-08-26T12:53:42.514Z,10.3
2022-08-26T12:54:39.768Z,10.0
2022-08-26T12:55:44.463Z,10.3
2022-08-26T12:56:39.391Z,10.1
2022-08-26T12:57:39.195Z,9.6
2022-08-26T12:58:38.967Z,9.5
2022-08-26T12:59:39.703Z,9.1
2022-08-26T13:00:40.985Z,9.1
2022-08-26T13:01:43.101Z,10.3
2022-08-26T13:02:39.170Z,10.3
2022-08-26T13:03:41.223Z,10.5
2022-08-26T13:04:40.183Z,9.8
2022-08-26T13:05:39.484Z,9.8
2022-08-26T13:06:39.750Z,10.2
2022-08-26T13:07:38.978Z,10.3
2022-08-26T13:08:40.977Z,10.0
2022-08-26T13:09:39.123Z,9.7
2022-08-26T13:10:44.387Z,10.1
2022-08-26T13:11:44.467Z,10.6
2022-08-26T13:12:39.362Z,10.6
2022-08-26T13:13:39.639Z,10.1
2022-08-26T13:14:39.437Z,9.5
2022-08-26T13:15:39.738Z,9.6
2022-08-26T13:16:39.817Z,10.1
2022-08-26T13:17:39.753Z,9.6
2022-08-26T13:18:39.556Z,10.4
2022-08-26T13:19:38.979Z,10.5
2022-08-26T13:20:41.403Z,9.4
2022-08-26T13:21:43.770Z,10.1
2022-08-26T13:22:42.229Z,11.0
2022-08-26T13:23:42.526Z,10.0
2022-08-26T13:24:41.132Z,9.8
2022-08-26T13:25:39.648Z,9.1
2022-08-26T13:26:40.479Z,10.1
2022-08-26T13:27:39.290Z,9.7
2022-08-26T13:28:39.532Z,10.1
2022-08-26T13:29:39.497Z,10.3
2022-08-26T13:30:40.385Z,9.9
2022-08-26T13:31:40.171Z,8.4
2022-08-26T13:32:39.755Z,10.0
2022-08-26T13:33:39.911Z,10.1
2022-08-26T13:34:39.343Z,10.1
2022-08-26T13:35:39.556Z,10.1
2022-08-26T13:36:39.178Z,9.4
2022-08-26T13:37:39.192Z,10.7
2022-08-26T13:38:39.084Z,9.1
2022-08-26T13:39:39.725Z,10.1
2022-08-26T13:40:42.277Z,9.9
2022-08-26T13:41:39.594Z,10.7